Аэропорт: Гомель. Гомель

ICAO: UMGG

METAR:
2019/01/21 23:00
UMGG 212300Z 26005MPS 9999 BKN021CB M04/M08 Q1018 R28/CLRD// NOSIG
METAR:
2019/01/21 18:21
TAF UMGG 211700Z 2118/2218 25006MPS 6000 BKN010 
      TEMPO 2118/2206 1200 -SHSN BR BKN004 SCT015CB 
      BECMG 2206/2208 22005MPS 
      TEMPO 2208/2218 20006MPS 2100 -SHSN BKN005 BKN015CB